Time;durP1;ratioP1;P1;durP2;ratioP2;P2;SDS_P1;SDS_P2;PMS_P1;PMS_P2;Temp;Humidity;BMP_temperature;BMP_pressure;BME280_temperature;BME280_humidity;BME280_pressure;Samples;Min_cycle;Max_cycle;Signal;HPM_P1;HPM_P2
2022/04/19 00:00:44;;;;;;;3.00;2.25;;;;;;;;;;4935074;29;20046;-74
2022/04/19 00:03:12;;;;;;;3.10;2.22;;;;;;;;;;4919552;29;20040;-64
2022/04/19 00:05:41;;;;;;;2.78;2.15;;;;;;;;;;4915677;29;20036;-64
2022/04/19 00:08:08;;;;;;;4.30;2.10;;;;;;;;;;4915467;29;20039;-64
2022/04/19 00:10:35;;;;;;;2.70;2.20;;;;;;;;;;4915869;29;20040;-67
2022/04/19 00:13:02;;;;;;;2.90;2.05;;;;;;;;;;4916046;29;20021;-62
2022/04/19 00:15:29;;;;;;;2.35;1.70;;;;;;;;;;4915824;29;20043;-65
2022/04/19 00:17:56;;;;;;;2.20;1.60;;;;;;;;;;4915989;29;20074;-63
2022/04/19 00:20:24;;;;;;;2.38;1.60;;;;;;;;;;4916502;29;20043;-65
2022/04/19 00:22:49;;;;;;;3.60;1.42;;;;;;;;;;4916269;29;20028;-64
2022/04/19 00:25:16;;;;;;;2.17;1.55;;;;;;;;;;4915504;29;20369;-69
2022/04/19 00:27:42;;;;;;;2.35;1.58;;;;;;;;;;4915380;29;20171;-64
2022/04/19 00:30:09;;;;;;;2.10;1.30;;;;;;;;;;4915780;29;20040;-66
2022/04/19 00:32:36;;;;;;;2.58;1.58;;;;;;;;;;4915840;29;20028;-64
2022/04/19 00:35:03;;;;;;;1.98;1.40;;;;;;;;;;4916070;29;20051;-65
2022/04/19 00:37:29;;;;;;;2.33;1.52;;;;;;;;;;4915765;29;20127;-64
2022/04/19 00:39:58;;;;;;;2.90;1.50;;;;;;;;;;4914506;29;20032;-63
2022/04/19 00:42:29;;;;;;;2.20;1.48;;;;;;;;;;4914079;29;20033;-64
2022/04/19 00:44:57;;;;;;;3.88;2.00;;;;;;;;;;4913716;29;20058;-65
2022/04/19 00:47:24;;;;;;;3.28;1.77;;;;;;;;;;4913030;29;20032;-64
2022/04/19 00:49:50;;;;;;;3.50;2.30;;;;;;;;;;4914307;29;20044;-65
2022/04/19 00:52:16;;;;;;;4.05;2.60;;;;;;;;;;4909145;29;20044;-64
2022/04/19 00:54:43;;;;;;;3.50;2.67;;;;;;;;;;4909609;29;20152;-64
2022/04/19 00:57:11;;;;;;;4.60;3.22;;;;;;;;;;4898400;29;20460;-67
2022/04/19 00:59:42;;;;;;;4.55;3.30;;;;;;;;;;4915333;29;20041;-65
2022/04/19 01:02:08;;;;;;;3.85;2.90;;;;;;;;;;4899414;29;20402;-68
2022/04/19 01:04:34;;;;;;;3.40;2.70;;;;;;;;;;4899394;29;20033;-67
2022/04/19 01:07:02;;;;;;;3.35;2.50;;;;;;;;;;4915185;29;20097;-68
2022/04/19 01:09:28;;;;;;;3.90;2.47;;;;;;;;;;4910581;29;20495;-73
2022/04/19 01:14:40;;;;;;;3.63;2.50;;;;;;;;;;4933609;29;20032;-69
2022/04/19 01:17:08;;;;;;;3.35;2.50;;;;;;;;;;4918217;29;20379;-68
2022/04/19 01:19:38;;;;;;;3.40;2.42;;;;;;;;;;4934063;29;20028;-70
2022/04/19 01:22:12;;;;;;;4.72;2.72;;;;;;;;;;4933901;29;20044;-67
2022/04/19 01:24:44;;;;;;;4.20;2.90;;;;;;;;;;4933951;29;20047;-65
2022/04/19 01:27:13;;;;;;;5.68;3.10;;;;;;;;;;4933929;29;20044;-68
2022/04/19 01:29:42;;;;;;;3.80;3.10;;;;;;;;;;4918161;29;20048;-67
2022/04/19 01:32:09;;;;;;;3.83;2.85;;;;;;;;;;4918073;29;20123;-68
2022/04/19 01:34:35;;;;;;;3.80;2.90;;;;;;;;;;4933625;29;20102;-68
2022/04/19 01:37:04;;;;;;;4.22;3.28;;;;;;;;;;4933627;29;20040;-65
2022/04/19 01:42:14;;;;;;;4.85;3.90;;;;;;;;;;4933476;29;20036;-64
2022/04/19 01:44:47;;;;;;;4.85;2.92;;;;;;;;;;4917835;29;20028;-63
2022/04/19 01:47:15;;;;;;;3.83;2.55;;;;;;;;;;4917549;29;20036;-64
2022/04/19 01:49:46;;;;;;;3.05;2.00;;;;;;;;;;4933639;29;20033;-65
2022/04/19 01:52:13;;;;;;;2.67;1.98;;;;;;;;;;4915436;29;20055;-64
2022/04/19 01:54:40;;;;;;;2.42;1.40;;;;;;;;;;4938955;29;20032;-65
2022/04/19 01:57:07;;;;;;;2.47;1.90;;;;;;;;;;4936206;29;20059;-65
2022/04/19 01:59:48;;;;;;;2.55;1.90;;;;;;;;;;4936088;29;20038;-64
2022/04/19 02:02:20;;;;;;;2.63;1.70;;;;;;;;;;4946196;28;20044;-64
2022/04/19 02:04:46;;;;;;;2.28;1.70;;;;;;;;;;4906886;29;20040;-64
2022/04/19 02:07:11;;;;;;;2.45;1.65;;;;;;;;;;4923980;29;20034;-64
2022/04/19 02:09:37;;;;;;;3.25;1.70;;;;;;;;;;4916365;29;20067;-64
2022/04/19 02:12:06;;;;;;;3.28;1.80;;;;;;;;;;4931505;29;20035;-66
2022/04/19 02:14:46;;;;;;;2.60;1.73;;;;;;;;;;4946789;29;20059;-64
2022/04/19 02:17:18;;;;;;;2.53;1.95;;;;;;;;;;4953105;28;20036;-65
2022/04/19 02:19:45;;;;;;;3.20;2.00;;;;;;;;;;4936687;29;20062;-66
2022/04/19 02:22:11;;;;;;;4.22;2.22;;;;;;;;;;4925112;28;20103;-64
2022/04/19 02:24:37;;;;;;;2.95;2.20;;;;;;;;;;4913887;29;20496;-63
2022/04/19 02:27:03;;;;;;;3.72;1.92;;;;;;;;;;4932254;29;20028;-64
2022/04/19 02:29:29;;;;;;;2.40;1.70;;;;;;;;;;4916183;29;20044;-63
2022/04/19 02:31:55;;;;;;;2.25;1.58;;;;;;;;;;4932691;29;20044;-64
2022/04/19 02:34:21;;;;;;;2.35;1.70;;;;;;;;;;4918573;29;20040;-64
2022/04/19 02:36:48;;;;;;;2.70;1.90;;;;;;;;;;4917490;29;20075;-65
2022/04/19 02:39:14;;;;;;;2.60;1.90;;;;;;;;;;4916564;29;20113;-65
2022/04/19 02:41:40;;;;;;;1.90;1.58;;;;;;;;;;4932531;29;20032;-64
2022/04/19 02:44:08;;;;;;;3.20;1.90;;;;;;;;;;4916659;29;20131;-64
2022/04/19 02:46:35;;;;;;;2.88;1.77;;;;;;;;;;4932632;29;20056;-65
2022/04/19 02:49:04;;;;;;;3.85;2.25;;;;;;;;;;4932582;29;20044;-64
2022/04/19 02:51:33;;;;;;;2.70;2.00;;;;;;;;;;4916431;29;20515;-64
2022/04/19 02:54:00;;;;;;;3.03;2.33;;;;;;;;;;4917849;29;20431;-63
2022/04/19 02:56:26;;;;;;;3.35;2.10;;;;;;;;;;4916302;29;20043;-66
2022/04/19 02:58:52;;;;;;;3.60;2.20;;;;;;;;;;4932363;29;20039;-63
2022/04/19 03:01:20;;;;;;;3.97;2.33;;;;;;;;;;4917879;29;20034;-64
2022/04/19 03:03:47;;;;;;;2.42;1.92;;;;;;;;;;4950629;28;20035;-65
2022/04/19 03:06:15;;;;;;;3.72;2.10;;;;;;;;;;4924360;29;20126;-64
2022/04/19 03:08:42;;;;;;;2.90;2.40;;;;;;;;;;4914675;29;20119;-64
2022/04/19 03:11:07;;;;;;;3.30;2.30;;;;;;;;;;4917008;29;20020;-65
2022/04/19 03:13:35;;;;;;;3.35;2.00;;;;;;;;;;4917161;29;20044;-63
2022/04/19 03:16:02;;;;;;;3.60;2.00;;;;;;;;;;4915258;29;20063;-66
2022/04/19 03:18:32;;;;;;;2.65;1.95;;;;;;;;;;4915745;29;20044;-64
2022/04/19 03:20:58;;;;;;;6.55;3.35;;;;;;;;;;4915575;29;20476;-65
2022/04/19 03:28:57;;;;;;;2.83;1.88;;;;;;;;;;4915325;29;20136;-65
2022/04/19 03:31:23;;;;;;;2.75;2.00;;;;;;;;;;4899543;29;20039;-65
2022/04/19 03:33:53;;;;;;;4.88;2.45;;;;;;;;;;4915291;29;20040;-64
2022/04/19 03:36:20;;;;;;;4.47;2.80;;;;;;;;;;4915064;29;20036;-64
2022/04/19 03:38:47;;;;;;;3.92;2.60;;;;;;;;;;4915009;29;20464;-64
2022/04/19 03:41:14;;;;;;;2.67;1.73;;;;;;;;;;4914830;29;20126;-64
2022/04/19 03:43:41;;;;;;;2.55;1.50;;;;;;;;;;4930024;29;20404;-69
2022/04/19 03:46:08;;;;;;;1.80;1.30;;;;;;;;;;4930046;29;20119;-72
2022/04/19 03:48:35;;;;;;;1.80;1.20;;;;;;;;;;4914440;29;20020;-65
2022/04/19 03:51:03;;;;;;;8.75;6.40;;;;;;;;;;4915491;29;20107;-64
2022/04/19 03:53:29;;;;;;;3.13;1.70;;;;;;;;;;4915535;29;20040;-64
2022/04/19 03:55:58;;;;;;;3.55;1.52;;;;;;;;;;4914541;29;20440;-65
2022/04/19 03:58:28;;;;;;;3.75;1.60;;;;;;;;;;4914617;29;20487;-65
2022/04/19 04:00:55;;;;;;;2.80;1.65;;;;;;;;;;4913971;29;20032;-66
2022/04/19 04:03:21;;;;;;;2.78;1.40;;;;;;;;;;4914053;29;20043;-65
2022/04/19 04:05:48;;;;;;;2.72;1.20;;;;;;;;;;4930470;29;20051;-63
2022/04/19 04:08:13;;;;;;;2.00;1.30;;;;;;;;;;4914373;29;20133;-65
2022/04/19 04:10:46;;;;;;;2.67;1.43;;;;;;;;;;4915042;29;20043;-63
2022/04/19 04:13:12;;;;;;;5.93;3.92;;;;;;;;;;4915311;29;20063;-64
2022/04/19 04:15:39;;;;;;;3.90;2.65;;;;;;;;;;4914025;29;20481;-65
2022/04/19 04:18:05;;;;;;;2.83;1.88;;;;;;;;;;4930022;29;20036;-65
2022/04/19 04:20:33;;;;;;;3.30;2.30;;;;;;;;;;4914042;29;20035;-64
2022/04/19 04:22:59;;;;;;;2.92;1.70;;;;;;;;;;4914196;29;20164;-65
2022/04/19 04:25:24;;;;;;;4.60;1.38;;;;;;;;;;4913710;29;20534;-64
2022/04/19 04:27:50;;;;;;;2.40;1.05;;;;;;;;;;4912571;29;20060;-65
2022/04/19 04:30:18;;;;;;;2.60;2.10;;;;;;;;;;4910695;29;20059;-65
2022/04/19 04:32:53;;;;;;;3.38;1.70;;;;;;;;;;4903562;29;20128;-65
2022/04/19 04:35:19;;;;;;;2.50;1.60;;;;;;;;;;4928612;29;20396;-65
2022/04/19 04:37:46;;;;;;;2.15;1.48;;;;;;;;;;4914310;29;20513;-69
2022/04/19 04:40:13;;;;;;;4.90;1.58;;;;;;;;;;4913868;29;20479;-68
2022/04/19 04:43:11;;;;;;;1.88;1.30;;;;;;;;;;4903231;29;20127;-69
2022/04/19 04:45:37;;;;;;;1.92;1.20;;;;;;;;;;4914410;29;20036;-69
2022/04/19 04:50:49;;;;;;;2.05;1.45;;;;;;;;;;4927460;29;20131;-67
2022/04/19 04:53:16;;;;;;;2.42;1.80;;;;;;;;;;4913440;29;20172;-69
2022/04/19 04:55:53;;;;;;;2.03;1.40;;;;;;;;;;4917917;29;20036;-68
2022/04/19 04:58:25;;;;;;;6.47;2.58;;;;;;;;;;4928061;29;20070;-70
2022/04/19 05:00:52;;;;;;;6.78;2.65;;;;;;;;;;4927098;29;20144;-68
2022/04/19 05:03:18;;;;;;;4.93;2.10;;;;;;;;;;4914380;29;20480;-68
2022/04/19 05:05:44;;;;;;;3.55;2.00;;;;;;;;;;4914750;29;20103;-68
2022/04/19 05:08:12;;;;;;;2.95;2.30;;;;;;;;;;4913471;29;20032;-67
2022/04/19 05:10:38;;;;;;;3.22;2.15;;;;;;;;;;4924993;29;20071;-70
2022/04/19 05:13:10;;;;;;;4.10;2.70;;;;;;;;;;4925231;29;20075;-69
2022/04/19 05:15:36;;;;;;;4.13;2.90;;;;;;;;;;4929451;29;20048;-70
2022/04/19 05:18:02;;;;;;;5.72;3.38;;;;;;;;;;4929150;29;20043;-76
2022/04/19 05:20:29;;;;;;;4.65;3.42;;;;;;;;;;4929053;29;20040;-74
2022/04/19 05:22:56;;;;;;;5.63;3.28;;;;;;;;;;4928977;29;20029;-72
2022/04/19 05:25:22;;;;;;;4.03;2.90;;;;;;;;;;4928646;29;20106;-70
2022/04/19 05:27:49;;;;;;;4.20;3.17;;;;;;;;;;4913461;29;20179;-75
2022/04/19 05:30:15;;;;;;;3.17;2.53;;;;;;;;;;4928564;29;20506;-69
2022/04/19 05:32:41;;;;;;;9.70;3.75;;;;;;;;;;4912710;29;20032;-71
2022/04/19 05:35:07;;;;;;;4.35;2.50;;;;;;;;;;4927164;29;20040;-68
2022/04/19 05:37:37;;;;;;;3.90;2.40;;;;;;;;;;4927986;29;20526;-72
2022/04/19 05:40:04;;;;;;;3.55;2.17;;;;;;;;;;4928572;29;20449;-71
2022/04/19 05:42:30;;;;;;;3.03;1.83;;;;;;;;;;4929084;29;20506;-69
2022/04/19 05:44:56;;;;;;;4.93;2.20;;;;;;;;;;4917301;29;20119;-69
2022/04/19 05:47:22;;;;;;;3.63;2.17;;;;;;;;;;4932664;29;20079;-68
2022/04/19 05:49:47;;;;;;;2.33;1.70;;;;;;;;;;4917030;29;20032;-67
2022/04/19 05:52:13;;;;;;;2.53;1.60;;;;;;;;;;4932577;29;20074;-68
2022/04/19 05:54:39;;;;;;;5.15;2.20;;;;;;;;;;4932772;29;20040;-73
2022/04/19 05:57:06;;;;;;;4.40;2.45;;;;;;;;;;4932767;29;20028;-76
2022/04/19 05:59:32;;;;;;;3.42;2.47;;;;;;;;;;4918316;29;20050;-75
2022/04/19 06:04:53;;;;;;;3.28;2.40;;;;;;;;;;4933960;29;20049;-75
2022/04/19 06:07:23;;;;;;;2.83;1.85;;;;;;;;;;4932521;29;20108;-74
2022/04/19 06:09:49;;;;;;;3.33;1.90;;;;;;;;;;4932712;29;20119;-73
2022/04/19 06:12:15;;;;;;;2.72;1.65;;;;;;;;;;4932488;29;20547;-74
2022/04/19 06:14:48;;;;;;;3.47;2.10;;;;;;;;;;4916887;29;20021;-70
2022/04/19 06:17:16;;;;;;;2.70;1.90;;;;;;;;;;4918171;29;20481;-70
2022/04/19 06:19:46;;;;;;;3.75;2.20;;;;;;;;;;4932081;29;20474;-70
2022/04/19 06:22:13;;;;;;;6.03;3.47;;;;;;;;;;4914672;29;20135;-71
2022/04/19 06:24:47;;;;;;;2.90;1.48;;;;;;;;;;4916190;29;20475;-71
2022/04/19 06:27:13;;;;;;;2.55;1.40;;;;;;;;;;4917675;29;20039;-70
2022/04/19 06:29:39;;;;;;;2.22;1.30;;;;;;;;;;4915524;29;20060;-72
2022/04/19 06:32:05;;;;;;;1.90;1.20;;;;;;;;;;4917854;29;20119;-74
2022/04/19 06:34:36;;;;;;;13.32;2.53;;;;;;;;;;4916273;29;20035;-67
2022/04/19 06:37:11;;;;;;;1.50;1.00;;;;;;;;;;4932005;29;20127;-69
2022/04/19 06:39:41;;;;;;;2.35;1.20;;;;;;;;;;4916126;29;20143;-71
2022/04/19 06:42:08;;;;;;;9.60;2.22;;;;;;;;;;4916458;29;20040;-69
2022/04/19 06:44:54;;;;;;;5.68;1.55;;;;;;;;;;4925390;29;20040;-71
2022/04/19 06:47:25;;;;;;;1.55;0.90;;;;;;;;;;4915839;29;20052;-71
2022/04/19 06:49:57;;;;;;;6.40;1.23;;;;;;;;;;4931931;29;20033;-72
2022/04/19 06:52:25;;;;;;;3.00;1.15;;;;;;;;;;4931941;29;20040;-73
2022/04/19 06:54:52;;;;;;;6.22;1.13;;;;;;;;;;4933406;29;20039;-72
2022/04/19 06:57:18;;;;;;;23.23;3.15;;;;;;;;;;4932759;29;20044;-68
2022/04/19 06:59:46;;;;;;;8.25;1.80;;;;;;;;;;4915612;29;20032;-71
2022/04/19 07:02:14;;;;;;;18.77;2.65;;;;;;;;;;4931635;29;20051;-75
2022/04/19 07:05:00;;;;;;;19.02;3.25;;;;;;;;;;4896661;29;20440;-71
2022/04/19 07:07:26;;;;;;;7.35;1.73;;;;;;;;;;4915689;29;20059;-69
2022/04/19 07:09:52;;;;;;;18.83;2.40;;;;;;;;;;4931346;29;20020;-69
2022/04/19 07:12:19;;;;;;;8.30;2.35;;;;;;;;;;4915396;29;20036;-72
2022/04/19 07:15:07;;;;;;;7.07;1.73;;;;;;;;;;4931016;29;20083;-73
2022/04/19 07:17:44;;;;;;;9.02;2.20;;;;;;;;;;4915347;29;20412;-70
2022/04/19 07:28:26;;;;;;;7.47;2.15;;;;;;;;;;4920594;29;20031;-71
2022/04/19 07:30:53;;;;;;;7.22;1.73;;;;;;;;;;4935518;28;20499;-70
2022/04/19 07:33:20;;;;;;;28.95;4.50;;;;;;;;;;4949990;28;20122;-69
2022/04/19 07:35:47;;;;;;;16.88;2.65;;;;;;;;;;4934081;29;20169;-72
2022/04/19 07:38:13;;;;;;;16.92;3.33;;;;;;;;;;4949945;28;20407;-73
2022/04/19 07:40:59;;;;;;;9.60;2.20;;;;;;;;;;4934298;29;20067;-73
2022/04/19 07:43:25;;;;;;;7.20;1.80;;;;;;;;;;4933842;29;20448;-70
2022/04/19 07:45:51;;;;;;;3.45;1.75;;;;;;;;;;4935189;29;20031;-73
2022/04/19 07:48:18;;;;;;;6.43;2.50;;;;;;;;;;4933460;29;20058;-70
2022/04/19 07:50:45;;;;;;;5.05;2.15;;;;;;;;;;4933508;29;20062;-71
2022/04/19 07:53:11;;;;;;;15.68;3.55;;;;;;;;;;4949787;28;20555;-70
2022/04/19 07:55:37;;;;;;;24.27;3.35;;;;;;;;;;4934042;29;20035;-72
2022/04/19 07:58:03;;;;;;;12.75;2.45;;;;;;;;;;4951021;28;20043;-70
2022/04/19 08:00:30;;;;;;;14.45;3.10;;;;;;;;;;4955475;28;20027;-73
2022/04/19 08:02:57;;;;;;;12.25;3.15;;;;;;;;;;4933828;29;20458;-72
2022/04/19 08:05:24;;;;;;;26.35;3.00;;;;;;;;;;4934522;29;20055;-70
2022/04/19 08:07:51;;;;;;;24.15;3.67;;;;;;;;;;4933823;29;20063;-70
2022/04/19 08:10:19;;;;;;;12.48;2.30;;;;;;;;;;4933885;29;20028;-71
2022/04/19 08:12:46;;;;;;;8.15;2.10;;;;;;;;;;4950058;28;20042;-73
2022/04/19 08:15:13;;;;;;;9.00;2.20;;;;;;;;;;4935054;29;20471;-71
2022/04/19 08:17:39;;;;;;;4.15;1.88;;;;;;;;;;4933257;29;20043;-71
2022/04/19 08:20:08;;;;;;;17.63;3.17;;;;;;;;;;4948943;28;20079;-72
2022/04/19 08:22:35;;;;;;;17.20;2.75;;;;;;;;;;4933502;29;20035;-71
2022/04/19 08:25:06;;;;;;;5.43;2.42;;;;;;;;;;4933742;29;20027;-69
2022/04/19 08:27:32;;;;;;;15.38;2.35;;;;;;;;;;4949071;28;20510;-72
2022/04/19 08:29:58;;;;;;;3.05;1.58;;;;;;;;;;4949609;28;20062;-71
2022/04/19 08:32:24;;;;;;;9.63;3.03;;;;;;;;;;4949280;28;20122;-72
2022/04/19 08:34:50;;;;;;;4.97;1.60;;;;;;;;;;4933356;29;20113;-73
2022/04/19 08:37:20;;;;;;;9.75;2.85;;;;;;;;;;4934545;28;20055;-73
2022/04/19 08:39:45;;;;;;;15.68;2.47;;;;;;;;;;4934454;29;20498;-71
2022/04/19 08:42:11;;;;;;;28.40;3.92;;;;;;;;;;4933486;29;20070;-69
2022/04/19 08:44:37;;;;;;;7.85;2.50;;;;;;;;;;4933082;29;20115;-71
2022/04/19 08:47:06;;;;;;;4.50;1.92;;;;;;;;;;4934121;29;20479;-69
2022/04/19 08:49:38;;;;;;;3.65;1.60;;;;;;;;;;4934480;28;20368;-68
2022/04/19 08:52:04;;;;;;;2.65;1.13;;;;;;;;;;4933932;29;20076;-67
2022/04/19 08:57:31;;;;;;;9.77;2.90;;;;;;;;;;4934133;29;20409;-69
2022/04/19 08:59:59;;;;;;;11.65;1.90;;;;;;;;;;4934507;29;20115;-70
2022/04/19 09:02:27;;;;;;;5.45;1.52;;;;;;;;;;4935031;29;20032;-69
2022/04/19 09:04:54;;;;;;;11.27;2.22;;;;;;;;;;4935484;29;20158;-70
2022/04/19 09:07:21;;;;;;;4.60;1.75;;;;;;;;;;4934628;29;20028;-68
2022/04/19 09:10:00;;;;;;;7.15;1.75;;;;;;;;;;4934112;29;20051;-70
2022/04/19 09:12:27;;;;;;;5.75;2.25;;;;;;;;;;4933745;28;20530;-69
2022/04/19 09:15:03;;;;;;;5.60;2.10;;;;;;;;;;4934212;29;20082;-71
2022/04/19 09:17:36;;;;;;;5.20;1.92;;;;;;;;;;4933880;29;20035;-71
2022/04/19 09:20:15;;;;;;;3.63;1.88;;;;;;;;;;4937719;29;20427;-72
2022/04/19 09:22:42;;;;;;;4.07;1.70;;;;;;;;;;4937871;29;20031;-72
2022/04/19 09:25:19;;;;;;;7.75;2.45;;;;;;;;;;4937984;29;20120;-71
2022/04/19 09:27:47;;;;;;;3.38;1.80;;;;;;;;;;4937612;29;20122;-73
2022/04/19 09:30:21;;;;;;;9.65;1.88;;;;;;;;;;4937637;29;20054;-71
2022/04/19 09:33:07;;;;;;;6.22;2.20;;;;;;;;;;4937704;29;20591;-74
2022/04/19 09:35:43;;;;;;;5.65;1.75;;;;;;;;;;4937549;29;20047;-71
2022/04/19 09:38:09;;;;;;;2.38;1.20;;;;;;;;;;4937748;29;20530;-70
2022/04/19 09:40:37;;;;;;;2.80;1.65;;;;;;;;;;4937735;29;20031;-72
2022/04/19 09:43:21;;;;;;;4.32;1.90;;;;;;;;;;4937249;29;20119;-73
2022/04/19 09:45:50;;;;;;;4.50;1.98;;;;;;;;;;4937395;28;20094;-71
2022/04/19 09:48:19;;;;;;;2.33;1.50;;;;;;;;;;4937120;29;20109;-76
2022/04/19 09:51:08;;;;;;;5.45;1.80;;;;;;;;;;4937222;29;20051;-70
2022/04/19 09:53:48;;;;;;;3.25;1.58;;;;;;;;;;4937761;29;20234;-72
2022/04/19 09:56:16;;;;;;;4.35;1.92;;;;;;;;;;4937036;29;20463;-73
2022/04/19 09:58:44;;;;;;;3.88;1.60;;;;;;;;;;4937244;29;20020;-71
2022/04/19 10:09:24;;;;;;;8.73;2.08;;;;;;;;;;4936794;29;20075;-72
2022/04/19 10:11:54;;;;;;;2.28;1.30;;;;;;;;;;4937094;29;20110;-70
2022/04/19 10:14:24;;;;;;;3.88;1.38;;;;;;;;;;4936959;29;20031;-70
2022/04/19 10:16:50;;;;;;;2.78;1.40;;;;;;;;;;4936719;28;20031;-72
2022/04/19 10:19:19;;;;;;;3.28;1.67;;;;;;;;;;4936588;29;20391;-73
2022/04/19 10:21:47;;;;;;;2.30;1.63;;;;;;;;;;4936523;29;20042;-70
2022/04/19 10:24:15;;;;;;;3.03;1.60;;;;;;;;;;4936638;29;20036;-72
2022/04/19 10:26:48;;;;;;;4.57;2.17;;;;;;;;;;4936949;29;20027;-73
2022/04/19 10:29:20;;;;;;;4.07;1.65;;;;;;;;;;4936072;29;20574;-69
2022/04/19 10:32:01;;;;;;;3.83;1.70;;;;;;;;;;4936503;29;20487;-70
2022/04/19 10:34:35;;;;;;;2.17;1.20;;;;;;;;;;4951447;28;20043;-71
2022/04/19 10:37:17;;;;;;;3.85;2.00;;;;;;;;;;4936464;29;20042;-70
2022/04/19 10:39:45;;;;;;;4.88;2.13;;;;;;;;;;4936793;29;20040;-70
2022/04/19 10:42:26;;;;;;;8.07;4.50;;;;;;;;;;4936841;29;20130;-69
2022/04/19 10:44:53;;;;;;;2.97;1.92;;;;;;;;;;4936431;29;20047;-70
2022/04/19 10:47:20;;;;;;;1.98;1.30;;;;;;;;;;4936177;29;20031;-70
2022/04/19 10:49:47;;;;;;;6.25;2.15;;;;;;;;;;4936073;29;20170;-70
2022/04/19 10:52:42;;;;;;;5.85;2.35;;;;;;;;;;4936105;29;20051;-68
2022/04/19 10:55:18;;;;;;;3.30;2.15;;;;;;;;;;4936169;29;20040;-69
2022/04/19 11:00:34;;;;;;;4.75;1.60;;;;;;;;;;4935539;29;20103;-70
2022/04/19 11:03:05;;;;;;;2.75;1.35;;;;;;;;;;4935461;29;20114;-68
2022/04/19 11:05:41;;;;;;;2.85;1.50;;;;;;;;;;4935596;29;20131;-68
2022/04/19 11:08:29;;;;;;;2.17;1.30;;;;;;;;;;4935861;29;20127;-69
2022/04/19 11:10:55;;;;;;;4.90;1.60;;;;;;;;;;4936018;29;20423;-69
2022/04/19 11:13:38;;;;;;;10.35;6.93;;;;;;;;;;4937111;29;20034;-68
2022/04/19 11:16:04;;;;;;;4.03;2.03;;;;;;;;;;4936714;29;20042;-69
2022/04/19 11:18:41;;;;;;;2.53;1.70;;;;;;;;;;4935667;29;20119;-70
2022/04/19 11:21:12;;;;;;;3.28;1.88;;;;;;;;;;4923445;29;20044;-73
2022/04/19 11:23:45;;;;;;;2.83;1.52;;;;;;;;;;4916332;29;20031;-69
2022/04/19 11:26:26;;;;;;;1.73;1.40;;;;;;;;;;4916581;29;20047;-73
2022/04/19 11:29:10;;;;;;;3.75;1.40;;;;;;;;;;4916687;29;20120;-73
2022/04/19 11:31:56;;;;;;;2.60;1.40;;;;;;;;;;4916354;29;20040;-70
2022/04/19 11:34:22;;;;;;;5.45;1.80;;;;;;;;;;4916066;29;20067;-70
2022/04/19 11:36:48;;;;;;;2.13;1.50;;;;;;;;;;4916501;29;20063;-70
2022/04/19 11:46:43;;;;;;;3.40;2.00;;;;;;;;;;4916385;29;20044;-69
2022/04/19 11:47:58;;;;;;;3.40;1.52;;;;;;;;;;4915975;29;20091;-70
2022/04/19 11:50:25;;;;;;;2.78;1.63;;;;;;;;;;4916027;29;20059;-73
2022/04/19 11:52:51;;;;;;;3.08;1.50;;;;;;;;;;4916584;29;20040;-71
2022/04/19 11:55:17;;;;;;;2.55;1.60;;;;;;;;;;4916552;29;20036;-70
2022/04/19 11:57:43;;;;;;;4.95;1.75;;;;;;;;;;4915907;29;20048;-69
2022/04/19 12:00:09;;;;;;;1.80;1.50;;;;;;;;;;4916320;29;20028;-73
2022/04/19 12:02:37;;;;;;;2.50;1.55;;;;;;;;;;4916054;29;20123;-70
2022/04/19 12:05:06;;;;;;;1.45;1.30;;;;;;;;;;4916195;29;20420;-70
2022/04/19 12:07:32;;;;;;;3.58;1.60;;;;;;;;;;4916149;29;20040;-72
2022/04/19 12:10:01;;;;;;;8.23;1.58;;;;;;;;;;4916698;29;20349;-72
2022/04/19 12:12:27;;;;;;;2.45;1.38;;;;;;;;;;4915976;29;20440;-67
2022/04/19 12:15:03;;;;;;;4.43;2.38;;;;;;;;;;4912837;29;20024;-70
2022/04/19 12:17:30;;;;;;;3.72;1.88;;;;;;;;;;4929713;29;20078;-76
2022/04/19 12:20:05;;;;;;;6.70;3.47;;;;;;;;;;4934065;29;20093;-68
2022/04/19 12:22:34;;;;;;;11.43;6.65;;;;;;;;;;4934587;29;20115;-69
2022/04/19 12:25:02;;;;;;;6.13;3.55;;;;;;;;;;4934567;29;20039;-70
2022/04/19 12:27:30;;;;;;;3.85;2.22;;;;;;;;;;4933765;29;20032;-67
2022/04/19 12:29:58;;;;;;;3.30;1.92;;;;;;;;;;4934148;29;20142;-70
2022/04/19 12:32:24;;;;;;;2.00;1.60;;;;;;;;;;4934603;29;20072;-69
2022/04/19 12:35:04;;;;;;;2.60;1.67;;;;;;;;;;4934417;29;20042;-69
2022/04/19 12:37:30;;;;;;;3.38;1.80;;;;;;;;;;4933533;29;20087;-69
2022/04/19 12:40:00;;;;;;;3.60;1.80;;;;;;;;;;4915144;29;20028;-70
2022/04/19 12:42:26;;;;;;;2.70;1.90;;;;;;;;;;4941773;29;20114;-68
2022/04/19 12:45:10;;;;;;;3.22;1.70;;;;;;;;;;4934285;29;20435;-69
2022/04/19 12:47:37;;;;;;;2.22;1.60;;;;;;;;;;4933906;29;20040;-70
2022/04/19 12:50:13;;;;;;;3.45;1.63;;;;;;;;;;4934029;29;20122;-68
2022/04/19 12:52:41;;;;;;;3.33;1.80;;;;;;;;;;4934171;29;20040;-69
2022/04/19 12:55:09;;;;;;;4.28;1.63;;;;;;;;;;4933876;29;20120;-72
2022/04/19 12:57:38;;;;;;;3.47;1.90;;;;;;;;;;4932664;29;20071;-71
2022/04/19 13:00:11;;;;;;;2.38;1.70;;;;;;;;;;4932283;29;20047;-69
2022/04/19 13:02:38;;;;;;;2.13;1.50;;;;;;;;;;4926320;29;20171;-70
2022/04/19 13:05:04;;;;;;;2.30;1.83;;;;;;;;;;4914851;29;20035;-69
2022/04/19 13:13:01;;;;;;;5.90;1.88;;;;;;;;;;4924222;28;20475;-75
2022/04/19 13:15:27;;;;;;;2.70;1.85;;;;;;;;;;4933710;29;20446;-69
2022/04/19 13:17:53;;;;;;;3.78;2.40;;;;;;;;;;4933280;29;20118;-70
2022/04/19 13:20:19;;;;;;;6.32;1.95;;;;;;;;;;4933685;29;20020;-73
2022/04/19 13:22:45;;;;;;;3.15;2.00;;;;;;;;;;4933787;29;20082;-70
2022/04/19 13:25:11;;;;;;;4.55;1.80;;;;;;;;;;4951858;28;20031;-73
2022/04/19 13:27:37;;;;;;;2.67;1.80;;;;;;;;;;4949336;28;20119;-73
2022/04/19 13:30:09;;;;;;;2.45;1.83;;;;;;;;;;4933106;29;20115;-72
2022/04/19 13:32:35;;;;;;;3.53;1.92;;;;;;;;;;4932427;29;20052;-71
2022/04/19 13:35:01;;;;;;;3.05;1.90;;;;;;;;;;4933138;29;20123;-78
2022/04/19 13:40:11;;;;;;;2.60;2.00;;;;;;;;;;4932902;29;20058;-72
2022/04/19 13:42:37;;;;;;;4.90;2.35;;;;;;;;;;4934092;29;20024;-71
2022/04/19 13:45:04;;;;;;;4.10;2.30;;;;;;;;;;4933686;29;20044;-75
2022/04/19 13:47:30;;;;;;;3.58;2.00;;;;;;;;;;4934174;29;20430;-70
2022/04/19 13:49:55;;;;;;;3.20;2.15;;;;;;;;;;4934180;29;20127;-73
2022/04/19 13:52:22;;;;;;;3.15;2.00;;;;;;;;;;4934104;29;20079;-74
2022/04/19 13:54:48;;;;;;;3.67;2.38;;;;;;;;;;4933395;29;20561;-72
2022/04/19 13:57:14;;;;;;;3.67;2.33;;;;;;;;;;4933509;29;20028;-72
2022/04/19 13:59:42;;;;;;;3.88;2.45;;;;;;;;;;4933917;29;20031;-70
2022/04/19 14:02:09;;;;;;;5.68;2.58;;;;;;;;;;4933624;29;20035;-75
2022/04/19 14:04:35;;;;;;;3.45;2.25;;;;;;;;;;4931511;29;20497;-80
2022/04/19 14:07:02;;;;;;;3.20;2.45;;;;;;;;;;4937227;29;20032;-73
2022/04/19 14:09:28;;;;;;;2.53;2.15;;;;;;;;;;4936364;29;20036;-70
2022/04/19 14:11:54;;;;;;;3.13;2.20;;;;;;;;;;4936373;29;20054;-72
2022/04/19 14:14:20;;;;;;;4.38;2.42;;;;;;;;;;4937135;29;20039;-71
2022/04/19 14:16:46;;;;;;;3.80;2.47;;;;;;;;;;4936560;29;20037;-71
2022/04/19 14:19:12;;;;;;;3.17;2.28;;;;;;;;;;4934887;29;20035;-72
2022/04/19 14:21:37;;;;;;;4.93;2.22;;;;;;;;;;4935911;29;20028;-70
2022/04/19 14:24:04;;;;;;;4.05;2.17;;;;;;;;;;4936269;29;20047;-70
2022/04/19 14:26:29;;;;;;;3.83;2.40;;;;;;;;;;4936494;29;20032;-69
2022/04/19 14:34:25;;;;;;;4.10;2.58;;;;;;;;;;4935546;29;20478;-69
2022/04/19 14:36:52;;;;;;;3.15;2.30;;;;;;;;;;4936525;29;20036;-75
2022/04/19 14:39:18;;;;;;;5.50;2.65;;;;;;;;;;4935363;29;20207;-69
2022/04/19 14:41:43;;;;;;;5.85;2.45;;;;;;;;;;4936622;29;20051;-70
2022/04/19 14:44:09;;;;;;;5.15;2.55;;;;;;;;;;4934920;29;20071;-70
2022/04/19 14:46:35;;;;;;;3.28;2.30;;;;;;;;;;4932455;29;20019;-73
2022/04/19 14:49:01;;;;;;;4.20;2.50;;;;;;;;;;4935288;29;20027;-71
2022/04/19 14:54:11;;;;;;;4.38;2.72;;;;;;;;;;4934142;29;20055;-70
2022/04/19 14:56:37;;;;;;;5.50;2.58;;;;;;;;;;4935635;29;20036;-70
2022/04/19 14:59:03;;;;;;;3.83;2.70;;;;;;;;;;4934901;29;20051;-70
2022/04/19 15:01:30;;;;;;;4.07;2.63;;;;;;;;;;4934934;29;20028;-69
2022/04/19 15:03:56;;;;;;;3.78;2.55;;;;;;;;;;4935073;29;20067;-71
2022/04/19 15:06:22;;;;;;;4.38;2.72;;;;;;;;;;4935605;29;20493;-68
2022/04/19 15:08:48;;;;;;;4.18;2.85;;;;;;;;;;4935579;29;20074;-69
2022/04/19 15:11:13;;;;;;;5.03;2.90;;;;;;;;;;4935353;29;20444;-73
2022/04/19 15:13:39;;;;;;;4.28;3.03;;;;;;;;;;4935979;29;20027;-75
2022/04/19 15:16:05;;;;;;;4.47;2.60;;;;;;;;;;4936071;29;20087;-73
2022/04/19 15:18:31;;;;;;;2.58;2.17;;;;;;;;;;4935805;29;20042;-74
2022/04/19 15:20:57;;;;;;;4.10;2.45;;;;;;;;;;4938018;29;20122;-70
2022/04/19 15:23:22;;;;;;;5.03;3.20;;;;;;;;;;4935712;29;20052;-77
2022/04/19 15:25:48;;;;;;;4.47;2.80;;;;;;;;;;4934963;29;20032;-77
2022/04/19 15:28:14;;;;;;;3.85;2.67;;;;;;;;;;4934864;29;20039;-76
2022/04/19 15:30:41;;;;;;;3.47;2.47;;;;;;;;;;4934566;29;20038;-76
2022/04/19 15:33:06;;;;;;;3.58;2.60;;;;;;;;;;4935182;29;20039;-78
2022/04/19 15:35:32;;;;;;;4.70;2.60;;;;;;;;;;4935872;29;20479;-78
2022/04/19 15:37:58;;;;;;;3.38;2.25;;;;;;;;;;4935200;29;20035;-70
2022/04/19 15:40:24;;;;;;;3.67;2.55;;;;;;;;;;4933821;29;20047;-70
2022/04/19 15:42:50;;;;;;;5.05;2.92;;;;;;;;;;4934133;29;20036;-71
2022/04/19 15:45:15;;;;;;;7.13;2.72;;;;;;;;;;4935100;29;20416;-71
2022/04/19 15:47:43;;;;;;;3.75;3.08;;;;;;;;;;4935020;29;20115;-70
2022/04/19 15:50:09;;;;;;;2.95;2.38;;;;;;;;;;4935432;29;20438;-70
2022/04/19 15:52:35;;;;;;;3.20;2.47;;;;;;;;;;4933936;29;20094;-70